Time;durP1;ratioP1;P1;durP2;ratioP2;P2;SDS_P1;SDS_P2;PMS_P1;PMS_P2;Temp;Humidity;BMP_temperature;BMP_pressure;BME280_temperature;BME280_humidity;BME280_pressure;Samples;Min_cycle;Max_cycle;Signal;HPM_P1;HPM_P2
2023/08/24 07:19:04;;;;;;;21.23;6.38;;;;;;;21.98;74.94;96646.94;2093504;28;21054;-69
2023/08/24 07:20:06;;;;;;;58.25;26.48;;;;;;;22.47;73.73;96646.09;2089232;28;20196;-67
2023/08/24 07:21:07;;;;;;;190.73;116.30;;;;;;;22.83;72.77;96659.59;2089175;28;20193;-67
2023/08/24 07:22:09;;;;;;;87.93;44.05;;;;;;;23.26;71.47;96652.88;2078861;28;20312;-68
2023/08/24 07:23:10;;;;;;;72.40;30.58;;;;;;;23.69;70.63;96647.84;2072319;28;20255;-69
2023/08/24 07:24:12;;;;;;;30.67;8.25;;;;;;;24.08;69.01;96644.91;2072087;28;20224;-68
2023/08/24 07:25:14;;;;;;;30.40;7.20;;;;;;;24.53;67.61;96644.91;2071938;28;20251;-69
2023/08/24 07:26:16;;;;;;;42.38;7.10;;;;;;;24.65;66.72;96648.22;2069444;28;20281;-68
2023/08/24 07:27:18;;;;;;;45.92;6.35;;;;;;;24.87;65.80;96644.16;2068456;28;20237;-69
2023/08/24 07:28:19;;;;;;;37.25;6.45;;;;;;;25.12;64.59;96639.78;2072010;28;20251;-69
2023/08/24 07:29:21;;;;;;;40.83;5.88;;;;;;;25.29;63.34;96645.19;2073030;28;20202;-69
2023/08/24 07:30:23;;;;;;;28.98;5.72;;;;;;;25.94;62.31;96641.91;2072440;28;20197;-69
2023/08/24 07:31:34;;;;;;;29.80;5.38;;;;;;;25.73;61.30;96635.16;2069977;28;20197;-69
2023/08/24 07:32:41;;;;;;;34.00;6.63;;;;;;;25.66;60.29;96641.34;2067908;28;20201;-69
2023/08/24 07:33:45;;;;;;;24.30;6.55;;;;;;;25.57;61.25;96637.81;2068571;28;20795;-69
2023/08/24 07:34:46;;;;;;;48.22;7.70;;;;;;;25.16;63.46;96629.63;2069197;28;20289;-69
2023/08/24 07:35:48;;;;;;;26.60;6.15;;;;;;;25.74;61.14;96631.50;2066754;28;20203;-69
2023/08/24 07:36:49;;;;;;;18.83;5.07;;;;;;;26.36;59.79;96630.25;2066545;28;20202;-69
2023/08/24 07:37:51;;;;;;;32.92;6.05;;;;;;;25.79;60.64;96630.16;2076447;28;20632;-69
2023/08/24 07:38:53;;;;;;;32.08;5.32;;;;;;;25.37;62.67;96630.06;2071382;28;20216;-68
2023/08/24 07:39:55;;;;;;;24.13;5.45;;;;;;;25.88;62.07;96635.38;2073218;28;20205;-68
2023/08/24 07:40:57;;;;;;;13.18;3.85;;;;;;;26.42;58.75;96630.56;2074632;28;20201;-66
2023/08/24 07:41:59;;;;;;;16.10;3.83;;;;;;;26.36;58.70;96635.59;2073255;28;20228;-66
2023/08/24 07:43:00;;;;;;;11.60;3.60;;;;;;;26.52;58.68;96640.06;2073669;28;20243;-67
2023/08/24 07:44:02;;;;;;;11.10;4.27;;;;;;;26.92;58.93;96639.38;2072774;28;20207;-67
2023/08/24 07:45:03;;;;;;;16.93;4.40;;;;;;;27.29;58.71;96643.28;2071895;28;21009;-67
2023/08/24 07:46:05;;;;;;;12.20;3.60;;;;;;;27.46;56.62;96646.75;2071092;28;20423;-67
2023/08/24 07:47:09;;;;;;;9.13;3.93;;;;;;;27.17;57.01;96646.34;2071858;28;20450;-66
2023/08/24 07:48:10;;;;;;;10.57;3.77;;;;;;;26.81;57.32;96641.41;2072562;28;20509;-66
2023/08/24 07:49:12;;;;;;;15.00;4.23;;;;;;;27.04;57.25;96648.72;2069238;28;20766;-67
2023/08/24 07:50:13;;;;;;;20.73;4.20;;;;;;;27.82;55.49;96641.69;2073988;28;20433;-67
2023/08/24 07:51:15;;;;;;;11.43;4.03;;;;;;;27.81;55.37;96644.56;2073913;28;20869;-67
2023/08/24 07:52:16;;;;;;;18.77;3.90;;;;;;;27.26;56.37;96644.47;2072089;28;20469;-67
2023/08/24 07:53:18;;;;;;;13.00;3.90;;;;;;;27.33;56.00;96641.91;2071080;28;20430;-67
2023/08/24 07:54:20;;;;;;;14.35;4.10;;;;;;;26.78;57.78;96646.25;2073216;28;20832;-66
2023/08/24 07:55:21;;;;;;;17.73;4.13;;;;;;;26.97;56.97;96655.75;2074610;28;20198;-67
2023/08/24 07:56:23;;;;;;;30.60;5.82;;;;;;;27.78;55.43;96658.31;2072758;28;20986;-67
2023/08/24 07:57:26;;;;;;;24.33;4.83;;;;;;;27.66;55.63;96657.88;2069613;28;20225;-67
2023/08/24 07:58:27;;;;;;;18.88;5.63;;;;;;;27.47;56.74;96661.81;2069151;28;20496;-66
2023/08/24 07:59:29;;;;;;;26.88;5.05;;;;;;;27.45;56.68;96656.66;2073365;28;20556;-66
2023/08/24 08:00:30;;;;;;;16.42;4.88;;;;;;;27.22;57.44;96664.56;2074336;28;20197;-66
2023/08/24 08:01:32;;;;;;;14.48;3.97;;;;;;;27.49;57.67;96666.00;2073682;28;20213;-67
2023/08/24 08:02:34;;;;;;;19.67;4.35;;;;;;;28.13;56.25;96661.47;2083292;28;20583;-67
2023/08/24 08:03:35;;;;;;;11.13;4.32;;;;;;;27.96;55.71;96658.00;2083685;28;20207;-67
2023/08/24 08:04:37;;;;;;;11.85;3.28;;;;;;;27.17;57.76;96653.53;2082854;28;20227;-67
2023/08/24 08:05:38;;;;;;;16.92;3.97;;;;;;;27.30;56.93;96664.53;2079732;28;20200;-67
2023/08/24 08:06:40;;;;;;;7.93;3.33;;;;;;;26.97;57.60;96658.44;2082526;28;20212;-66
2023/08/24 08:07:41;;;;;;;9.90;3.70;;;;;;;26.94;58.04;96650.75;2083061;28;20626;-67
2023/08/24 08:08:44;;;;;;;9.95;3.53;;;;;;;26.88;57.71;96650.44;2083192;28;20201;-67
2023/08/24 08:09:45;;;;;;;9.60;4.55;;;;;;;27.50;57.15;96650.75;2089605;28;20271;-66
2023/08/24 08:10:47;;;;;;;6.72;3.80;;;;;;;27.77;57.11;96653.94;2089953;28;20196;-66
2023/08/24 08:11:49;;;;;;;9.13;3.00;;;;;;;28.21;55.95;96649.84;2079758;28;20288;-67
2023/08/24 08:12:50;;;;;;;15.82;3.50;;;;;;;28.08;56.65;96645.88;2077770;28;20284;-67
2023/08/24 08:13:52;;;;;;;25.42;4.80;;;;;;;28.17;55.32;96647.50;2079368;28;20583;-67
2023/08/24 08:14:53;;;;;;;25.60;4.75;;;;;;;27.08;57.22;96643.84;2082352;28;20223;-67
2023/08/24 08:16:05;;;;;;;21.70;5.03;;;;;;;27.93;56.38;96648.47;2081821;28;20268;-67
2023/08/24 08:17:06;;;;;;;12.07;4.00;;;;;;;28.59;54.54;96642.59;2080711;28;20286;-67
2023/08/24 08:18:07;;;;;;;5.22;3.47;;;;;;;28.98;53.83;96638.06;2082384;28;20193;-67
2023/08/24 08:19:09;;;;;;;14.57;3.63;;;;;;;27.89;55.70;96643.66;2081018;28;20217;-67
2023/08/24 08:20:14;;;;;;;9.38;3.70;;;;;;;28.16;55.47;96639.63;2080127;28;20281;-67
2023/08/24 08:21:19;;;;;;;10.57;3.90;;;;;;;28.34;55.31;96642.00;2081854;28;20196;-67
2023/08/24 08:22:23;;;;;;;14.07;3.95;;;;;;;28.18;54.77;96643.81;2080301;28;20235;-67
2023/08/24 08:23:25;;;;;;;24.65;4.22;;;;;;;28.21;55.18;96647.16;2080473;28;20197;-69
2023/08/24 08:24:26;;;;;;;11.77;4.55;;;;;;;28.22;55.14;96643.47;2080863;28;20703;-65
2023/08/24 08:25:28;;;;;;;12.50;4.15;;;;;;;27.74;56.64;96655.13;2083999;28;20645;-65
2023/08/24 08:26:29;;;;;;;39.25;30.08;;;;;;;28.56;55.23;96653.72;2079754;28;20323;-64
2023/08/24 08:27:31;;;;;;;45.50;24.80;;;;;;;28.96;54.78;96640.94;2080588;28;20216;-65
2023/08/24 08:28:34;;;;;;;43.75;28.23;;;;;;;29.32;53.85;96658.19;2080565;28;20429;-65
2023/08/24 08:29:36;;;;;;;31.38;8.50;;;;;;;29.81;53.14;96662.09;2079047;28;20564;-65
2023/08/24 08:30:37;;;;;;;12.77;4.63;;;;;;;29.93;52.79;96659.78;2073161;28;20198;-65
2023/08/24 08:31:40;;;;;;;21.23;4.53;;;;;;;30.08;52.40;96657.00;2073606;28;20522;-65
2023/08/24 08:32:41;;;;;;;27.97;4.73;;;;;;;30.09;52.63;96650.59;2073981;28;20442;-65
2023/08/24 08:33:43;;;;;;;10.00;3.53;;;;;;;29.87;51.53;96650.56;2072082;28;20921;-66
2023/08/24 08:34:45;;;;;;;12.60;3.80;;;;;;;29.93;52.46;96641.75;2073675;28;20428;-66
2023/08/24 08:35:46;;;;;;;11.57;3.67;;;;;;;30.29;52.59;96643.53;2072973;28;20514;-66
2023/08/24 08:36:47;;;;;;;13.70;3.67;;;;;;;30.33;52.18;96649.38;2071748;28;20432;-67
2023/08/24 08:37:50;;;;;;;9.87;3.30;;;;;;;30.60;51.83;96647.78;2076061;28;20791;-66
2023/08/24 08:38:51;;;;;;;11.80;3.73;;;;;;;30.91;51.09;96646.53;2073845;28;21189;-66
2023/08/24 08:39:53;;;;;;;14.83;3.73;;;;;;;30.74;50.95;96651.41;2077543;28;20434;-66
2023/08/24 08:41:02;;;;;;;14.43;4.30;;;;;;;30.73;50.99;96651.63;2075614;28;20422;-65
2023/08/24 08:42:03;;;;;;;20.63;3.80;;;;;;;30.76;50.62;96651.22;2073008;28;20538;-66
2023/08/24 08:43:05;;;;;;;16.30;4.30;;;;;;;31.04;50.64;96651.19;2076250;28;20414;-66
2023/08/24 08:44:07;;;;;;;11.93;3.70;;;;;;;30.59;49.77;96656.06;2074519;28;20422;-66
2023/08/24 08:45:10;;;;;;;10.17;3.57;;;;;;;30.38;49.98;96648.81;2071970;28;20994;-66
2023/08/24 08:46:13;;;;;;;10.30;3.60;;;;;;;29.72;51.94;96642.53;2073644;28;20750;-66
2023/08/24 08:47:16;;;;;;;15.10;4.03;;;;;;;30.15;51.93;96646.34;2071141;28;20486;-67
2023/08/24 08:48:18;;;;;;;13.63;4.20;;;;;;;30.35;51.05;96649.19;2071365;28;20484;-66
2023/08/24 08:49:20;;;;;;;22.00;4.03;;;;;;;30.13;51.56;96644.66;2072439;28;20420;-66
2023/08/24 08:50:21;;;;;;;11.33;4.13;;;;;;;29.51;52.55;96642.50;2074396;28;20509;-66
2023/08/24 08:51:23;;;;;;;15.97;4.73;;;;;;;30.30;51.97;96639.84;2074328;28;20426;-66
2023/08/24 08:52:25;;;;;;;8.87;3.77;;;;;;;30.65;52.11;96646.34;2070943;28;20838;-66
2023/08/24 08:53:26;;;;;;;8.83;4.20;;;;;;;30.91;51.22;96645.72;2072166;28;20503;-66
2023/08/24 08:54:28;;;;;;;9.33;3.10;;;;;;;31.15;50.17;96655.22;2070983;28;20522;-66
2023/08/24 08:55:30;;;;;;;12.97;3.17;;;;;;;31.27;49.83;96656.34;2069726;28;20450;-66
2023/08/24 08:56:33;;;;;;;5.73;2.67;;;;;;;30.84;49.74;96644.84;2071412;28;20627;-66
2023/08/24 08:57:35;;;;;;;9.67;3.23;;;;;;;29.26;53.12;96646.28;2072357;28;21235;-66
2023/08/24 08:58:37;;;;;;;8.30;3.57;;;;;;;29.86;52.44;96648.88;2072959;28;20522;-67
2023/08/24 08:59:38;;;;;;;12.20;3.57;;;;;;;30.61;51.93;96648.59;2073330;28;20808;-66
2023/08/24 09:00:40;;;;;;;24.50;4.40;;;;;;;30.89;50.95;96645.94;2077608;28;21236;-67
2023/08/24 09:01:44;;;;;;;22.10;4.50;;;;;;;31.21;49.75;96648.19;2074192;28;20479;-66
2023/08/24 09:02:49;;;;;;;11.37;3.63;;;;;;;31.08;49.96;96641.72;2073424;28;20427;-67
2023/08/24 09:03:51;;;;;;;9.13;3.50;;;;;;;30.59;50.12;96634.53;2072658;28;20481;-67
2023/08/24 09:04:53;;;;;;;13.63;3.73;;;;;;;30.63;50.55;96638.47;2071078;28;20970;-67
2023/08/24 09:05:54;;;;;;;12.33;3.53;;;;;;;31.07;50.19;96640.06;2067771;28;21145;-67
2023/08/24 09:06:56;;;;;;;6.60;3.57;;;;;;;30.13;50.43;96633.03;2070112;28;20555;-67
2023/08/24 09:07:59;;;;;;;8.47;3.30;;;;;;;29.77;51.72;96626.66;2075509;28;20527;-66
2023/08/24 09:09:01;;;;;;;10.37;4.00;;;;;;;29.75;51.81;96623.34;2072594;28;20428;-67
2023/08/24 09:10:04;;;;;;;18.60;4.43;;;;;;;29.38;52.95;96616.28;2074060;28;20806;-66
2023/08/24 09:11:08;;;;;;;16.43;4.23;;;;;;;29.84;52.84;96615.97;2073592;28;20426;-67
2023/08/24 09:12:09;;;;;;;8.30;3.70;;;;;;;30.60;52.70;96618.16;2072565;28;20565;-67
2023/08/24 09:13:12;;;;;;;10.43;3.50;;;;;;;31.06;52.00;96610.59;2073352;28;20419;-68
2023/08/24 09:14:14;;;;;;;15.60;3.60;;;;;;;31.33;51.73;96608.84;2070385;28;20431;-67
2023/08/24 09:15:24;;;;;;;12.47;3.87;;;;;;;31.48;51.05;96606.00;2070418;28;20481;-67
2023/08/24 09:16:29;;;;;;;13.13;4.17;;;;;;;31.56;51.18;96595.00;2072993;28;20830;-67
2023/08/24 09:17:31;;;;;;;5.40;3.40;;;;;;;30.40;51.89;96601.00;2074956;28;20451;-67
2023/08/24 09:18:37;;;;;;;14.10;4.63;;;;;;;30.06;52.76;96602.56;2078296;28;20473;-67
2023/08/24 09:19:39;;;;;;;9.70;3.80;;;;;;;30.74;52.09;96597.53;2073848;28;20467;-67
2023/08/24 09:20:41;;;;;;;13.83;4.40;;;;;;;30.48;51.63;96603.56;2069687;28;20460;-66
2023/08/24 09:21:42;;;;;;;14.20;3.70;;;;;;;30.49;52.02;96596.28;2071851;28;20517;-67
2023/08/24 09:22:44;;;;;;;14.97;4.13;;;;;;;31.15;51.64;96593.22;2069873;28;20435;-67
2023/08/24 09:23:56;;;;;;;10.03;3.57;;;;;;;31.67;50.41;96590.94;2074241;28;20802;-66
2023/08/24 09:25:02;;;;;;;34.07;21.47;;;;;;;31.65;50.19;96584.09;2072641;28;20428;-67
2023/08/24 09:26:04;;;;;;;58.40;38.20;;;;;;;31.69;49.49;96598.81;2075779;28;20423;-66
2023/08/24 09:27:17;;;;;;;64.30;48.67;;;;;;;31.73;49.73;96598.22;2075121;28;20520;-66
2023/08/24 09:28:25;;;;;;;13.07;4.40;;;;;;;30.91;50.61;96599.91;2074465;28;20435;-66
2023/08/24 09:29:26;;;;;;;24.57;4.10;;;;;;;29.76;51.83;96592.72;2075958;28;20501;-67
2023/08/24 09:30:37;;;;;;;8.93;4.10;;;;;;;29.49;53.11;96596.97;2076272;28;20437;-66
2023/08/24 09:31:39;;;;;;;12.90;4.33;;;;;;;28.92;54.55;96602.00;2074432;28;20436;-66
2023/08/24 09:32:41;;;;;;;20.93;4.30;;;;;;;30.05;52.63;96595.50;2075272;28;20426;-66
2023/08/24 09:33:45;;;;;;;15.20;3.83;;;;;;;30.47;52.60;96596.47;2075184;28;20442;-67
2023/08/24 09:34:46;;;;;;;21.43;5.03;;;;;;;30.87;51.15;96587.88;2076119;28;20970;-67
2023/08/24 09:36:04;;;;;;;14.07;4.17;;;;;;;30.47;51.34;96577.59;2074124;28;20891;-66
2023/08/24 09:37:13;;;;;;;17.63;5.43;;;;;;;29.89;53.01;96591.19;2075543;28;20493;-66
2023/08/24 09:38:19;;;;;;;9.50;4.17;;;;;;;30.20;53.65;96588.19;2074630;28;20421;-66
2023/08/24 09:39:20;;;;;;;16.20;4.67;;;;;;;30.56;51.65;96576.47;2075876;28;20429;-67
2023/08/24 09:40:28;;;;;;;10.20;3.80;;;;;;;30.10;52.30;96580.41;2074426;28;20425;-67
2023/08/24 09:41:44;;;;;;;12.67;4.00;;;;;;;29.86;52.53;96578.09;2071414;28;20436;-66
2023/08/24 09:42:45;;;;;;;15.90;4.40;;;;;;;29.85;52.90;96574.56;2069892;28;20443;-66
2023/08/24 09:43:47;;;;;;;22.03;5.33;;;;;;;29.71;53.00;96570.94;2068865;28;20742;-66
2023/08/24 09:44:48;;;;;;;11.00;3.60;;;;;;;29.25;54.98;96568.53;2067491;28;20432;-66
2023/08/24 09:45:55;;;;;;;9.07;4.30;;;;;;;28.72;54.89;96568.66;2069723;28;20481;-66
2023/08/24 09:46:57;;;;;;;12.37;3.73;;;;;;;29.82;54.12;96566.91;2068848;28;20470;-68
2023/08/24 09:48:00;;;;;;;10.97;3.60;;;;;;;30.70;52.17;96566.63;2069202;28;20511;-66
2023/08/24 09:49:01;;;;;;;10.97;3.60;;;;;;;29.75;52.70;96564.16;2074493;28;20489;-66
2023/08/24 09:50:04;;;;;;;16.67;5.07;;;;;;;28.68;54.86;96554.75;2074465;28;20431;-66
2023/08/24 09:51:06;;;;;;;8.07;4.63;;;;;;;29.21;54.25;96553.81;2071724;28;20423;-66
2023/08/24 09:52:09;;;;;;;24.53;5.53;;;;;;;29.26;54.49;96543.31;2070389;28;20458;-66
2023/08/24 09:53:22;;;;;;;10.37;4.53;;;;;;;29.75;53.88;96544.47;2074994;28;20430;-66
2023/08/24 09:54:30;;;;;;;17.10;5.27;;;;;;;30.47;52.79;96539.91;2073882;28;20430;-66
2023/08/24 09:55:36;;;;;;;13.43;4.37;;;;;;;30.80;51.21;96546.56;2074146;28;20435;-66
2023/08/24 09:56:39;;;;;;;17.50;5.00;;;;;;;31.50;50.49;96541.06;2070776;28;20454;-67
2023/08/24 09:57:42;;;;;;;20.27;4.80;;;;;;;32.01;49.18;96537.84;2073660;28;20439;-67
2023/08/24 09:58:45;;;;;;;16.37;4.20;;;;;;;30.93;50.80;96534.00;2073856;28;20807;-66
2023/08/24 09:59:50;;;;;;;15.50;4.30;;;;;;;29.44;54.23;96526.78;2072707;28;20782;-66
2023/08/24 10:00:52;;;;;;;10.77;4.10;;;;;;;29.18;54.02;96525.44;2072879;28;20437;-66
2023/08/24 10:01:57;;;;;;;8.63;4.50;;;;;;;29.64;53.84;96524.31;2071588;28;20460;-66
2023/08/24 10:03:01;;;;;;;9.43;4.40;;;;;;;29.33;54.33;96520.03;2073410;28;20443;-66
2023/08/24 10:04:05;;;;;;;12.73;5.00;;;;;;;29.54;54.05;96511.16;2073914;28;20443;-66
2023/08/24 10:05:08;;;;;;;16.50;4.80;;;;;;;29.77;53.74;96515.53;2071462;28;20937;-66
2023/08/24 10:06:27;;;;;;;18.20;4.20;;;;;;;30.00;53.16;96517.19;2071282;28;20441;-66
2023/08/24 10:07:30;;;;;;;21.93;4.90;;;;;;;29.50;54.95;96517.97;2070164;28;20462;-66
2023/08/24 10:08:47;;;;;;;12.80;4.63;;;;;;;29.57;54.35;96512.63;2071100;28;20423;-66
2023/08/24 10:10:03;;;;;;;9.27;4.00;;;;;;;30.58;52.51;96507.06;2076337;28;20483;-66
2023/08/24 10:11:06;;;;;;;12.37;4.07;;;;;;;31.14;50.84;96509.84;2073637;28;20877;-66
2023/08/24 10:12:09;;;;;;;14.50;4.90;;;;;;;30.83;52.04;96503.03;2075020;28;20459;-66
2023/08/24 10:13:23;;;;;;;13.30;4.53;;;;;;;31.35;51.27;96507.00;2070051;28;20423;-66
2023/08/24 10:14:32;;;;;;;32.33;5.47;;;;;;;31.84;49.90;96506.91;2069226;28;20442;-67
2023/08/24 10:15:36;;;;;;;30.03;5.70;;;;;;;31.58;50.97;96505.81;2071175;28;20527;-67
2023/08/24 10:16:40;;;;;;;19.37;4.50;;;;;;;31.18;50.87;96500.31;2079958;28;20426;-66
2023/08/24 10:17:43;;;;;;;11.10;4.30;;;;;;;30.77;52.16;96497.41;2082180;28;20826;-67
2023/08/24 10:18:46;;;;;;;13.03;4.60;;;;;;;31.05;51.88;96496.50;2074568;28;20536;-66
2023/08/24 10:19:50;;;;;;;15.03;4.87;;;;;;;31.49;50.79;96501.63;2075026;28;20536;-65
2023/08/24 10:20:52;;;;;;;12.90;4.40;;;;;;;31.46;51.13;96492.06;2074831;28;20457;-66
2023/08/24 10:21:57;;;;;;;13.03;4.67;;;;;;;31.65;51.15;96498.56;2072472;28;20461;-67
2023/08/24 10:23:06;;;;;;;8.30;4.10;;;;;;;30.84;51.85;96500.13;2069340;28;20447;-67
2023/08/24 10:24:21;;;;;;;14.30;4.20;;;;;;;31.71;50.41;96489.66;2073260;28;20541;-67
2023/08/24 10:25:24;;;;;;;12.00;4.57;;;;;;;32.23;49.17;96483.66;2073586;28;20422;-67
2023/08/24 10:26:26;;;;;;;14.57;4.90;;;;;;;32.78;47.96;96493.31;2073273;28;20423;-67
2023/08/24 10:27:29;;;;;;;9.27;3.97;;;;;;;32.91;47.52;96495.13;2069733;28;20471;-67
2023/08/24 10:28:31;;;;;;;9.50;3.90;;;;;;;32.48;49.05;96491.91;2070381;28;20490;-67
2023/08/24 10:29:33;;;;;;;11.10;5.03;;;;;;;31.70;50.05;96496.06;2071696;28;20430;-67
2023/08/24 10:30:36;;;;;;;8.30;3.53;;;;;;;32.50;49.13;96497.09;2072008;28;20424;-68
2023/08/24 10:31:40;;;;;;;9.63;4.00;;;;;;;32.72;49.03;96487.69;2072681;28;20474;-67
2023/08/24 10:32:45;;;;;;;11.83;4.37;;;;;;;32.94;48.49;96486.59;2073437;28;21159;-68
2023/08/24 10:33:48;;;;;;;13.67;4.70;;;;;;;32.73;48.46;96485.81;2072506;28;20505;-68
2023/08/24 10:34:50;;;;;;;11.47;4.17;;;;;;;31.52;50.42;96483.16;2072668;28;20434;-67
2023/08/24 10:35:52;;;;;;;9.63;3.57;;;;;;;32.48;49.11;96489.22;2070963;28;20432;-68
2023/08/24 10:36:54;;;;;;;14.93;6.43;;;;;;;32.82;48.35;96478.31;2074169;28;20461;-67
2023/08/24 10:37:58;;;;;;;9.40;4.40;;;;;;;32.26;48.68;96483.22;2075481;28;20481;-68
2023/08/24 10:39:05;;;;;;;8.53;4.00;;;;;;;31.97;49.65;96485.28;2076995;28;20410;-68
2023/08/24 10:40:08;;;;;;;8.73;4.40;;;;;;;31.57;50.05;96480.69;2073254;28;20419;-65
2023/08/24 10:41:13;;;;;;;11.53;4.07;;;;;;;32.51;49.14;96474.47;2071045;28;20422;-70
2023/08/24 10:42:16;;;;;;;9.50;4.30;;;;;;;32.30;49.14;96470.13;2069616;28;20470;-70
2023/08/24 10:43:18;;;;;;;15.17;4.97;;;;;;;31.41;50.34;96472.97;2076048;28;20781;-70
2023/08/24 10:44:24;;;;;;;10.53;4.10;;;;;;;31.29;50.67;96464.66;2075266;28;20439;-69
2023/08/24 10:45:26;;;;;;;11.07;4.83;;;;;;;32.37;49.17;96458.28;2066167;28;20427;-69
2023/08/24 10:46:27;;;;;;;10.47;4.37;;;;;;;33.30;48.01;96455.44;2066724;28;20485;-70
2023/08/24 10:47:29;;;;;;;11.53;3.90;;;;;;;34.04;46.86;96450.31;2069485;28;20489;-69
2023/08/24 10:48:43;;;;;;;13.33;4.63;;;;;;;34.16;46.60;96459.38;2073365;28;20432;-69
2023/08/24 10:49:54;;;;;;;12.30;3.63;;;;;;;34.00;46.71;96457.25;2073741;28;20999;-69
2023/08/24 10:51:13;;;;;;;13.60;4.67;;;;;;;34.67;44.61;96459.28;2073810;28;20426;-70
2023/08/24 10:52:45;;;;;;;14.37;4.67;;;;;;;34.26;45.86;96461.59;2072377;28;21491;-69
2023/08/24 10:53:57;;;;;;;7.57;4.43;;;;;;;33.98;46.08;96445.78;2063775;28;20444;-70
2023/08/24 10:55:01;;;;;;;8.70;3.90;;;;;;;33.37;47.11;96448.94;2070196;28;20757;-69
2023/08/24 10:56:17;;;;;;;8.63;3.67;;;;;;;32.80;47.58;96442.56;2072300;28;20920;-69
2023/08/24 10:57:23;;;;;;;21.13;4.30;;;;;;;33.00;47.84;96437.91;2068590;28;20455;-69
2023/08/24 10:58:24;;;;;;;6.93;3.90;;;;;;;33.45;47.24;96442.44;2071346;28;20428;-69
2023/08/24 10:59:34;;;;;;;12.73;4.23;;;;;;;32.96;47.73;96443.94;2073821;28;20473;-69
2023/08/24 11:00:51;;;;;;;11.07;4.93;;;;;;;33.37;47.45;96442.72;2072316;28;20501;-70
2023/08/24 11:01:53;;;;;;;14.27;5.13;;;;;;;33.33;47.44;96442.31;2073592;28;20521;-70
2023/08/24 11:02:55;;;;;;;9.37;4.37;;;;;;;34.47;45.76;96437.84;2073732;28;20470;-70
2023/08/24 11:04:05;;;;;;;11.80;4.40;;;;;;;34.56;45.47;96435.66;2072823;28;20466;-70
2023/08/24 11:05:17;;;;;;;12.50;4.50;;;;;;;32.16;49.07;96434.19;2072649;28;20924;-70
2023/08/24 11:06:24;;;;;;;7.73;4.00;;;;;;;32.03;49.14;96435.03;2068305;28;20482;-69
2023/08/24 11:07:26;;;;;;;16.93;3.93;;;;;;;32.64;49.11;96433.03;2069372;28;20543;-69
2023/08/24 11:08:47;;;;;;;19.37;4.63;;;;;;;34.32;45.85;96435.47;2073508;28;20426;-69
2023/08/24 11:09:49;;;;;;;14.23;4.10;;;;;;;34.89;45.45;96432.56;2070735;28;20426;-70
2023/08/24 11:10:50;;;;;;;14.87;3.90;;;;;;;35.47;44.40;96431.13;2070087;28;20415;-70
2023/08/24 11:12:01;;;;;;;24.73;4.97;;;;;;;35.80;43.72;96434.38;2074966;28;20528;-70
2023/08/24 11:13:03;;;;;;;9.53;4.63;;;;;;;35.11;44.05;96441.03;2072383;28;20424;-70
2023/08/24 11:14:22;;;;;;;38.33;5.60;;;;;;;35.07;43.75;96431.72;2070787;28;20481;-70
2023/08/24 11:15:34;;;;;;;16.47;5.43;;;;;;;34.35;44.82;96429.63;2074441;28;20427;-70
2023/08/24 11:16:39;;;;;;;20.33;4.90;;;;;;;35.43;43.91;96434.56;2070253;28;20427;-70
2023/08/24 11:17:40;;;;;;;12.60;4.60;;;;;;;35.78;42.93;96436.50;2072529;28;20422;-70
2023/08/24 11:18:42;;;;;;;10.63;4.10;;;;;;;35.77;43.19;96434.84;2075549;28;21028;-71
2023/08/24 11:19:56;;;;;;;9.53;3.97;;;;;;;35.96;42.61;96431.00;2073591;28;20427;-70
2023/08/24 11:21:03;;;;;;;9.03;3.80;;;;;;;34.38;45.08;96428.34;2073088;28;20458;-71
2023/08/24 11:22:06;;;;;;;19.57;4.03;;;;;;;35.30;43.88;96417.38;2070497;28;20962;-70
2023/08/24 11:23:08;;;;;;;13.20;3.57;;;;;;;36.10;43.28;96418.00;2070916;28;21024;-69
2023/08/24 11:24:13;;;;;;;15.43;4.40;;;;;;;35.90;43.13;96410.22;2068978;28;20551;-71
2023/08/24 11:25:15;;;;;;;20.37;4.37;;;;;;;34.57;45.28;96408.31;2065987;28;20748;-71
2023/08/24 11:26:16;;;;;;;13.90;4.53;;;;;;;35.24;44.81;96407.47;2070514;28;20427;-70
2023/08/24 11:27:20;;;;;;;23.30;5.10;;;;;;;34.41;44.93;96408.94;2070649;28;21064;-71
2023/08/24 11:28:23;;;;;;;16.90;4.50;;;;;;;33.82;46.19;96420.13;2071624;28;20437;-71
2023/08/24 11:29:25;;;;;;;8.67;4.03;;;;;;;33.56;46.69;96408.44;2075463;28;20420;-71
2023/08/24 11:30:27;;;;;;;7.40;4.20;;;;;;;33.48;47.05;96408.72;2075639;28;20427;-70
2023/08/24 11:31:28;;;;;;;6.10;3.80;;;;;;;34.12;45.75;96403.16;2075751;28;20522;-70
2023/08/24 11:32:30;;;;;;;9.50;4.07;;;;;;;33.82;46.19;96402.00;2070458;28;20462;-71
2023/08/24 11:33:33;;;;;;;7.30;3.93;;;;;;;33.19;47.13;96400.13;2071689;28;20457;-71
2023/08/24 11:34:36;;;;;;;11.90;4.73;;;;;;;33.64;47.27;96397.34;2074547;28;20423;-70
2023/08/24 11:35:40;;;;;;;13.93;4.20;;;;;;;33.72;46.91;96401.63;2073441;28;20427;-70
2023/08/24 11:36:51;;;;;;;11.47;3.97;;;;;;;33.72;46.47;96401.63;2073271;28;20439;-70
2023/08/24 11:37:54;;;;;;;6.90;4.27;;;;;;;33.64;47.30;96400.03;2074340;28;20881;-70
2023/08/24 11:38:59;;;;;;;10.03;4.70;;;;;;;33.52;46.81;96401.81;2074911;28;20427;-70
2023/08/24 11:40:01;;;;;;;7.40;4.30;;;;;;;33.74;46.82;96399.56;2072173;28;20423;-76
2023/08/24 11:41:10;;;;;;;10.50;4.90;;;;;;;33.32;47.40;96404.66;2071099;28;21013;-70
2023/08/24 11:42:11;;;;;;;13.97;4.63;;;;;;;33.75;46.71;96401.22;2073916;28;20553;-70
2023/08/24 11:43:27;;;;;;;8.03;4.50;;;;;;;33.09;48.09;96395.22;2073168;28;20426;-70
2023/08/24 11:44:29;;;;;;;8.70;4.50;;;;;;;32.99;48.16;96400.25;2073215;28;20498;-70
2023/08/24 11:45:32;;;;;;;17.17;4.27;;;;;;;33.11;48.18;96397.69;2073246;28;20423;-70
2023/08/24 11:46:36;;;;;;;9.30;4.07;;;;;;;32.99;48.37;96397.53;2072805;28;20433;-69
2023/08/24 11:47:38;;;;;;;10.50;4.23;;;;;;;33.17;48.31;96391.44;2080060;28;20459;-70
2023/08/24 11:48:40;;;;;;;12.30;4.33;;;;;;;33.20;47.21;96397.22;2077430;28;20910;-70
2023/08/24 11:49:42;;;;;;;10.53;4.37;;;;;;;33.93;46.80;96395.03;2068286;28;20431;-70
2023/08/24 11:50:43;;;;;;;12.23;4.23;;;;;;;34.22;46.69;96399.94;2074233;28;20422;-69
2023/08/24 11:51:45;;;;;;;15.90;4.77;;;;;;;33.86;46.81;96391.56;2069790;28;20439;-70
2023/08/24 11:52:47;;;;;;;9.10;3.97;;;;;;;34.56;45.86;96397.72;2068343;28;20424;-70
2023/08/24 11:53:49;;;;;;;10.30;4.07;;;;;;;35.14;44.84;96393.63;2071923;28;20435;-70
2023/08/24 11:54:51;;;;;;;7.00;3.90;;;;;;;34.98;45.32;96392.38;2073084;28;21098;-71
2023/08/24 11:55:53;;;;;;;7.83;4.07;;;;;;;35.01;45.25;96399.22;2073836;28;20426;-70
2023/08/24 11:57:06;;;;;;;10.37;4.50;;;;;;;34.61;46.38;96406.00;2072263;28;20485;-70
2023/08/24 11:58:15;;;;;;;9.90;4.57;;;;;;;34.31;45.86;96402.13;2071937;28;20427;-71
2023/08/24 11:59:17;;;;;;;9.20;4.40;;;;;;;34.56;45.51;96397.72;2072067;28;21036;-70
2023/08/24 12:00:21;;;;;;;11.03;4.23;;;;;;;34.67;44.63;96400.47;2074202;28;20483;-71
2023/08/24 12:01:23;;;;;;;12.13;4.67;;;;;;;35.40;43.38;96392.44;2077244;28;20538;-70
2023/08/24 12:02:24;;;;;;;10.20;4.13;;;;;;;34.69;44.72;96396.72;2075005;28;20459;-70
2023/08/24 12:03:26;;;;;;;11.20;4.40;;;;;;;33.58;46.45;96392.81;2070233;28;20454;-71
2023/08/24 12:04:27;;;;;;;7.73;4.23;;;;;;;33.36;46.82;96390.47;2072853;28;20518;-70
2023/08/24 12:05:29;;;;;;;10.13;4.30;;;;;;;32.99;47.43;96386.72;2073105;28;21101;-71
2023/08/24 12:06:30;;;;;;;13.30;3.93;;;;;;;33.00;47.24;96381.13;2071865;28;20800;-70
2023/08/24 12:07:32;;;;;;;7.93;3.80;;;;;;;32.44;48.19;96385.31;2071584;28;20469;-70
2023/08/24 12:08:37;;;;;;;8.57;3.57;;;;;;;33.16;47.21;96381.66;2071583;28;20425;-70
2023/08/24 12:09:40;;;;;;;12.63;4.20;;;;;;;33.40;46.91;96376.53;2073109;28;20503;-70
2023/08/24 12:10:42;;;;;;;11.70;4.40;;;;;;;33.61;46.65;96373.44;2077239;28;20519;-70
2023/08/24 12:11:44;;;;;;;13.00;4.10;;;;;;;34.13;45.96;96386.72;2075363;28;20423;-70
2023/08/24 12:12:46;;;;;;;11.03;4.40;;;;;;;34.33;45.78;96367.56;2072432;28;20430;-70
2023/08/24 12:13:49;;;;;;;11.40;3.93;;;;;;;34.40;45.78;96377.47;2072748;28;20450;-71
2023/08/24 12:14:51;;;;;;;10.30;4.43;;;;;;;34.40;45.43;96369.34;2074668;28;20496;-70
2023/08/24 12:15:52;;;;;;;14.70;4.47;;;;;;;34.00;46.14;96366.03;2077604;28;20439;-70
2023/08/24 12:16:54;;;;;;;12.13;3.87;;;;;;;34.34;46.08;96368.38;2077178;28;20455;-69